Belevo, Russia
Current Conditions -  °F | °C
As of 11:30 AM on Tuesday 23 Dec 2014 (Local Time) from UNEE Reporting Station
Overcast Overcast  
Wind Chill:   Ceiling: 20000
Heat Index: 18°   Visibility: 4mi
Dew Point: 18°   Wind: 7mph
Humidity: 100%   Direction: 150°SSE
Pressure: 30.3"   Gusts: NA
Location:  54.42°N, 86.3°E
Report Text: UNEE 230430Z 15003MPS 7000 SCT066 OVC200 M08/M08 Q1026 NOSIGRMK QFE747 23390033
Loading
Personal Weather Stations






























Interactive Weather Map New forecast layout! Learn more

10-Day Weather Forecast

Advertisements
Track Severe Weather on mobile